Hauptseite
METAR-TAF:

METAR-TAF

Flughäfen :

Cazaux, Frankreich

Militärflugplatz Cazaux

Breite: 44-32N, Länge: 001-08W, Höhe: 25 m

Beobachtung

Neuester Wetterbericht von vor 24 Minuten, um 06:30 UTC
Wind 6 kt aus Südwest
Temperatur 17°C
Luftfeuchtigkeit 77%
Luftdruck 1015 hPa
Sichtweite 10 km oder mehr
keine Wolken unter 1500 m und keine Kumulonimbus oder Gewitterwolken

METAR: LFBC 220630Z AUTO 22006KT CAVOK 17/13 Q1015

Zeit: 08:54 (06:54 UTC)

Prognose

Neuester Wetterbericht von vor 16 Stunden und 54 Minuten, um 14:00 UTC
Gültige Prognose vom 20 um 15 UTC bis 21 um 15 UTC
Wind 10 kt aus Ost/Nordost
Sichtweite 10 km oder mehr
keine Wolken unter 1500 m und keine Kumulonimbus oder Gewitterwolken
Wahrscheinlichkeit 30% :
Zeitweise
vom 20 um 15 UTC bis 20 um 19 UTC
Wind 8 kt aus Nord/Nordwest

TAF: LFBC 201400Z 2015/2115 07010KT CAVOK PROB30 TEMPO 2015/2019 33008KT

Wetterbeobachtungen und Prognosen von mehr als 4000 Flughäfen (METAR und TAF Bericht).

Die verfügbaren Stationen werden durch gelbe und rote Markierungen auf der Karte dargestellt.

Führen Sie die Maus auf sie, um den Namen der Station zu sehen.

Darauf klicken, um die Beobachtung von Wetterbeobachtungen und Prognosen zu sehen.

Um die Karte zu ändern : klicken Sie auf den grünen Tasten mit einem schwarzen Kreuz Zum Vergrößern, auf den grünen Button mit einem Gedankenstrich zu verkleinern, oder auf die grünen Pfeile für benachbarte Karten.


METAR-TAF: